sensor_id;sensor_type;location;lat;lon;timestamp;P1;durP1;ratioP1;P2;durP2;ratioP2
1759;SDS011;877;46.266;20.062;2022-07-29T00:01:05;8.63;;;4.40;;
1759;SDS011;877;46.266;20.062;2022-07-29T00:03:34;7.60;;;4.33;;
1759;SDS011;877;46.266;20.062;2022-07-29T00:06:00;6.20;;;3.73;;
1759;SDS011;877;46.266;20.062;2022-07-29T00:08:27;7.40;;;4.47;;
1759;SDS011;877;46.266;20.062;2022-07-29T00:10:55;7.40;;;4.43;;
1759;SDS011;877;46.266;20.062;2022-07-29T00:13:23;6.10;;;4.40;;
1759;SDS011;877;46.266;20.062;2022-07-29T00:15:50;5.23;;;3.87;;
1759;SDS011;877;46.266;20.062;2022-07-29T00:18:16;7.53;;;4.97;;
1759;SDS011;877;46.266;20.062;2022-07-29T00:20:43;6.40;;;4.27;;
1759;SDS011;877;46.266;20.062;2022-07-29T00:23:19;8.73;;;5.20;;
1759;SDS011;877;46.266;20.062;2022-07-29T00:25:46;9.20;;;4.50;;
1759;SDS011;877;46.266;20.062;2022-07-29T00:28:13;7.97;;;4.73;;
1759;SDS011;877;46.266;20.062;2022-07-29T00:30:40;11.87;;;4.63;;
1759;SDS011;877;46.266;20.062;2022-07-29T00:33:12;11.43;;;4.63;;
1759;SDS011;877;46.266;20.062;2022-07-29T00:35:38;7.10;;;4.83;;
1759;SDS011;877;46.266;20.062;2022-07-29T00:38:12;10.13;;;5.00;;
1759;SDS011;877;46.266;20.062;2022-07-29T00:40:40;5.30;;;4.60;;
1759;SDS011;877;46.266;20.062;2022-07-29T00:43:07;10.03;;;4.80;;
1759;SDS011;877;46.266;20.062;2022-07-29T00:50:34;9.63;;;4.80;;
1759;SDS011;877;46.266;20.062;2022-07-29T00:53:00;11.33;;;5.30;;
1759;SDS011;877;46.266;20.062;2022-07-29T00:55:27;7.60;;;5.10;;
1759;SDS011;877;46.266;20.062;2022-07-29T00:57:55;5.77;;;4.80;;
1759;SDS011;877;46.266;20.062;2022-07-29T01:02:51;6.53;;;4.60;;
1759;SDS011;877;46.266;20.062;2022-07-29T01:05:19;10.57;;;4.53;;
1759;SDS011;877;46.266;20.062;2022-07-29T01:07:46;8.70;;;5.40;;
1759;SDS011;877;46.266;20.062;2022-07-29T01:10:16;12.20;;;5.17;;
1759;SDS011;877;46.266;20.062;2022-07-29T01:12:44;9.17;;;5.40;;
1759;SDS011;877;46.266;20.062;2022-07-29T01:15:12;6.50;;;5.23;;
1759;SDS011;877;46.266;20.062;2022-07-29T01:20:07;13.33;;;5.30;;
1759;SDS011;877;46.266;20.062;2022-07-29T01:25:44;8.23;;;5.00;;
1759;SDS011;877;46.266;20.062;2022-07-29T01:30:56;7.80;;;4.60;;
1759;SDS011;877;46.266;20.062;2022-07-29T01:33:24;7.13;;;5.00;;
1759;SDS011;877;46.266;20.062;2022-07-29T01:36:10;12.30;;;5.00;;
1759;SDS011;877;46.266;20.062;2022-07-29T01:38:38;9.03;;;5.07;;
1759;SDS011;877;46.266;20.062;2022-07-29T01:41:05;5.10;;;4.20;;
1759;SDS011;877;46.266;20.062;2022-07-29T01:44:17;8.80;;;4.70;;
1759;SDS011;877;46.266;20.062;2022-07-29T01:46:46;9.13;;;4.80;;
1759;SDS011;877;46.266;20.062;2022-07-29T01:49:17;5.80;;;4.63;;
1759;SDS011;877;46.266;20.062;2022-07-29T01:51:51;7.27;;;4.90;;
1759;SDS011;877;46.266;20.062;2022-07-29T01:54:26;15.67;;;5.40;;
1759;SDS011;877;46.266;20.062;2022-07-29T01:56:55;7.37;;;5.00;;
1759;SDS011;877;46.266;20.062;2022-07-29T01:59:22;11.10;;;5.40;;
1759;SDS011;877;46.266;20.062;2022-07-29T02:01:49;7.53;;;4.90;;
1759;SDS011;877;46.266;20.062;2022-07-29T02:04:16;7.33;;;5.07;;
1759;SDS011;877;46.266;20.062;2022-07-29T02:06:45;6.93;;;4.60;;
1759;SDS011;877;46.266;20.062;2022-07-29T02:09:13;7.60;;;5.20;;
1759;SDS011;877;46.266;20.062;2022-07-29T02:11:40;9.83;;;5.17;;
1759;SDS011;877;46.266;20.062;2022-07-29T02:14:18;7.97;;;5.17;;
1759;SDS011;877;46.266;20.062;2022-07-29T02:16:46;14.93;;;5.83;;
1759;SDS011;877;46.266;20.062;2022-07-29T02:19:13;10.97;;;5.33;;
1759;SDS011;877;46.266;20.062;2022-07-29T02:21:41;12.23;;;4.77;;
1759;SDS011;877;46.266;20.062;2022-07-29T02:24:09;12.80;;;5.20;;
1759;SDS011;877;46.266;20.062;2022-07-29T02:26:39;7.73;;;4.60;;
1759;SDS011;877;46.266;20.062;2022-07-29T02:29:07;14.13;;;5.60;;
1759;SDS011;877;46.266;20.062;2022-07-29T02:31:34;12.33;;;5.40;;
1759;SDS011;877;46.266;20.062;2022-07-29T02:34:01;8.13;;;5.13;;
1759;SDS011;877;46.266;20.062;2022-07-29T02:36:29;11.53;;;5.10;;
1759;SDS011;877;46.266;20.062;2022-07-29T02:38:55;6.97;;;5.00;;
1759;SDS011;877;46.266;20.062;2022-07-29T02:41:24;11.90;;;5.07;;
1759;SDS011;877;46.266;20.062;2022-07-29T02:43:56;9.93;;;4.73;;
1759;SDS011;877;46.266;20.062;2022-07-29T02:47:09;6.70;;;4.93;;
1759;SDS011;877;46.266;20.062;2022-07-29T02:49:35;8.10;;;4.83;;
1759;SDS011;877;46.266;20.062;2022-07-29T02:52:03;10.37;;;6.10;;
1759;SDS011;877;46.266;20.062;2022-07-29T02:57:04;7.97;;;5.40;;
1759;SDS011;877;46.266;20.062;2022-07-29T02:59:32;9.63;;;4.90;;
1759;SDS011;877;46.266;20.062;2022-07-29T03:02:00;8.90;;;5.73;;
1759;SDS011;877;46.266;20.062;2022-07-29T03:04:28;8.23;;;5.43;;
1759;SDS011;877;46.266;20.062;2022-07-29T03:06:57;7.90;;;4.80;;
1759;SDS011;877;46.266;20.062;2022-07-29T03:09:24;7.97;;;5.30;;
1759;SDS011;877;46.266;20.062;2022-07-29T03:11:51;9.43;;;5.60;;
1759;SDS011;877;46.266;20.062;2022-07-29T03:14:19;9.27;;;5.20;;
1759;SDS011;877;46.266;20.062;2022-07-29T03:16:47;11.07;;;5.07;;
1759;SDS011;877;46.266;20.062;2022-07-29T03:19:14;11.63;;;5.70;;
1759;SDS011;877;46.266;20.062;2022-07-29T03:21:41;11.93;;;6.17;;
1759;SDS011;877;46.266;20.062;2022-07-29T03:24:09;9.37;;;5.30;;
1759;SDS011;877;46.266;20.062;2022-07-29T03:26:35;11.70;;;6.00;;
1759;SDS011;877;46.266;20.062;2022-07-29T03:29:02;10.27;;;5.50;;
1759;SDS011;877;46.266;20.062;2022-07-29T03:31:30;10.63;;;5.80;;
1759;SDS011;877;46.266;20.062;2022-07-29T03:33:56;8.77;;;5.80;;
1759;SDS011;877;46.266;20.062;2022-07-29T03:36:23;13.37;;;6.07;;
1759;SDS011;877;46.266;20.062;2022-07-29T03:38:49;12.60;;;6.07;;
1759;SDS011;877;46.266;20.062;2022-07-29T03:43:53;10.23;;;5.77;;
1759;SDS011;877;46.266;20.062;2022-07-29T03:46:21;18.73;;;7.50;;
1759;SDS011;877;46.266;20.062;2022-07-29T03:48:55;7.50;;;5.10;;
1759;SDS011;877;46.266;20.062;2022-07-29T03:51:24;18.60;;;7.20;;
1759;SDS011;877;46.266;20.062;2022-07-29T03:53:51;12.37;;;6.23;;
1759;SDS011;877;46.266;20.062;2022-07-29T03:56:17;11.20;;;6.00;;
1759;SDS011;877;46.266;20.062;2022-07-29T03:58:46;12.30;;;6.10;;
1759;SDS011;877;46.266;20.062;2022-07-29T04:01:13;14.27;;;7.30;;
1759;SDS011;877;46.266;20.062;2022-07-29T04:03:43;21.20;;;6.83;;
1759;SDS011;877;46.266;20.062;2022-07-29T04:06:10;16.33;;;7.10;;
1759;SDS011;877;46.266;20.062;2022-07-29T04:08:37;15.80;;;6.33;;
1759;SDS011;877;46.266;20.062;2022-07-29T04:11:04;22.43;;;7.97;;
1759;SDS011;877;46.266;20.062;2022-07-29T04:13:31;14.00;;;6.27;;
1759;SDS011;877;46.266;20.062;2022-07-29T04:18:29;11.80;;;7.20;;
1759;SDS011;877;46.266;20.062;2022-07-29T04:20:55;12.23;;;6.70;;
1759;SDS011;877;46.266;20.062;2022-07-29T04:23:26;10.60;;;7.00;;
1759;SDS011;877;46.266;20.062;2022-07-29T04:25:52;9.50;;;7.80;;
1759;SDS011;877;46.266;20.062;2022-07-29T04:28:19;15.70;;;7.93;;
1759;SDS011;877;46.266;20.062;2022-07-29T04:30:45;18.03;;;8.50;;
1759;SDS011;877;46.266;20.062;2022-07-29T04:33:12;10.73;;;6.90;;
1759;SDS011;877;46.266;20.062;2022-07-29T04:35:39;8.40;;;6.03;;
1759;SDS011;877;46.266;20.062;2022-07-29T04:38:07;8.40;;;6.50;;
1759;SDS011;877;46.266;20.062;2022-07-29T04:40:34;14.97;;;7.20;;
1759;SDS011;877;46.266;20.062;2022-07-29T04:43:02;11.10;;;6.50;;
1759;SDS011;877;46.266;20.062;2022-07-29T04:45:30;19.43;;;7.83;;
1759;SDS011;877;46.266;20.062;2022-07-29T04:47:56;10.87;;;7.07;;
1759;SDS011;877;46.266;20.062;2022-07-29T04:50:25;14.47;;;7.10;;
1759;SDS011;877;46.266;20.062;2022-07-29T04:52:55;21.77;;;7.43;;
1759;SDS011;877;46.266;20.062;2022-07-29T04:55:21;11.60;;;7.40;;
1759;SDS011;877;46.266;20.062;2022-07-29T04:57:55;14.67;;;6.73;;
1759;SDS011;877;46.266;20.062;2022-07-29T05:00:28;11.57;;;6.97;;
1759;SDS011;877;46.266;20.062;2022-07-29T05:02:55;10.57;;;7.30;;
1759;SDS011;877;46.266;20.062;2022-07-29T05:05:21;12.37;;;7.47;;
1759;SDS011;877;46.266;20.062;2022-07-29T05:07:47;11.40;;;7.20;;
1759;SDS011;877;46.266;20.062;2022-07-29T05:10:13;11.33;;;8.47;;
1759;SDS011;877;46.266;20.062;2022-07-29T05:12:39;11.00;;;8.77;;
1759;SDS011;877;46.266;20.062;2022-07-29T05:15:06;10.23;;;8.20;;
1759;SDS011;877;46.266;20.062;2022-07-29T05:17:34;35.90;;;30.67;;
1759;SDS011;877;46.266;20.062;2022-07-29T05:20:02;15.57;;;12.07;;
1759;SDS011;877;46.266;20.062;2022-07-29T05:22:28;10.03;;;8.63;;
1759;SDS011;877;46.266;20.062;2022-07-29T05:24:56;10.70;;;9.27;;
1759;SDS011;877;46.266;20.062;2022-07-29T05:27:23;11.20;;;8.97;;
1759;SDS011;877;46.266;20.062;2022-07-29T05:29:50;11.17;;;8.70;;
1759;SDS011;877;46.266;20.062;2022-07-29T05:32:16;12.10;;;8.63;;
1759;SDS011;877;46.266;20.062;2022-07-29T05:34:42;10.30;;;9.20;;
1759;SDS011;877;46.266;20.062;2022-07-29T05:37:14;13.40;;;8.73;;
1759;SDS011;877;46.266;20.062;2022-07-29T05:39:41;12.90;;;8.77;;
1759;SDS011;877;46.266;20.062;2022-07-29T05:44:38;12.47;;;9.90;;
1759;SDS011;877;46.266;20.062;2022-07-29T05:47:05;10.50;;;9.40;;
1759;SDS011;877;46.266;20.062;2022-07-29T05:49:32;11.07;;;9.60;;
1759;SDS011;877;46.266;20.062;2022-07-29T05:51:59;13.27;;;9.30;;
1759;SDS011;877;46.266;20.062;2022-07-29T05:54:27;11.50;;;8.63;;
1759;SDS011;877;46.266;20.062;2022-07-29T05:56:53;15.20;;;9.67;;
1759;SDS011;877;46.266;20.062;2022-07-29T05:59:19;9.43;;;8.17;;
1759;SDS011;877;46.266;20.062;2022-07-29T06:01:46;10.77;;;9.33;;
1759;SDS011;877;46.266;20.062;2022-07-29T06:04:12;11.60;;;9.20;;
1759;SDS011;877;46.266;20.062;2022-07-29T06:06:38;9.00;;;8.07;;
1759;SDS011;877;46.266;20.062;2022-07-29T06:09:04;10.07;;;8.93;;
1759;SDS011;877;46.266;20.062;2022-07-29T06:11:32;9.93;;;8.97;;
1759;SDS011;877;46.266;20.062;2022-07-29T06:13:59;11.67;;;10.00;;
1759;SDS011;877;46.266;20.062;2022-07-29T06:16:25;9.47;;;8.40;;
1759;SDS011;877;46.266;20.062;2022-07-29T06:18:57;17.00;;;9.70;;
1759;SDS011;877;46.266;20.062;2022-07-29T06:21:24;14.90;;;10.50;;
1759;SDS011;877;46.266;20.062;2022-07-29T06:23:54;11.13;;;9.00;;
1759;SDS011;877;46.266;20.062;2022-07-29T06:26:22;11.30;;;10.10;;
1759;SDS011;877;46.266;20.062;2022-07-29T06:28:50;12.23;;;10.97;;
1759;SDS011;877;46.266;20.062;2022-07-29T06:31:16;12.57;;;10.80;;
1759;SDS011;877;46.266;20.062;2022-07-29T06:33:44;13.13;;;10.40;;
1759;SDS011;877;46.266;20.062;2022-07-29T06:36:10;10.83;;;9.60;;
1759;SDS011;877;46.266;20.062;2022-07-29T06:38:37;12.87;;;9.47;;
1759;SDS011;877;46.266;20.062;2022-07-29T06:41:03;11.90;;;9.67;;
1759;SDS011;877;46.266;20.062;2022-07-29T06:43:31;12.40;;;10.27;;
1759;SDS011;877;46.266;20.062;2022-07-29T06:46:12;11.70;;;10.13;;
1759;SDS011;877;46.266;20.062;2022-07-29T06:48:39;13.80;;;10.23;;
1759;SDS011;877;46.266;20.062;2022-07-29T06:51:05;12.43;;;9.63;;
1759;SDS011;877;46.266;20.062;2022-07-29T06:53:32;11.80;;;9.70;;
1759;SDS011;877;46.266;20.062;2022-07-29T06:55:59;11.73;;;9.07;;
1759;SDS011;877;46.266;20.062;2022-07-29T06:58:26;12.90;;;8.90;;
1759;SDS011;877;46.266;20.062;2022-07-29T07:00:55;10.00;;;8.70;;
1759;SDS011;877;46.266;20.062;2022-07-29T07:03:21;9.87;;;8.77;;
1759;SDS011;877;46.266;20.062;2022-07-29T07:05:49;14.80;;;9.47;;
1759;SDS011;877;46.266;20.062;2022-07-29T07:08:17;10.20;;;8.70;;
1759;SDS011;877;46.266;20.062;2022-07-29T07:10:44;9.60;;;8.70;;
1759;SDS011;877;46.266;20.062;2022-07-29T07:13:13;12.00;;;9.87;;
1759;SDS011;877;46.266;20.062;2022-07-29T07:15:42;13.73;;;10.10;;
1759;SDS011;877;46.266;20.062;2022-07-29T07:18:13;12.20;;;10.83;;
1759;SDS011;877;46.266;20.062;2022-07-29T07:20:41;12.60;;;8.90;;
1759;SDS011;877;46.266;20.062;2022-07-29T07:23:07;10.73;;;8.93;;
1759;SDS011;877;46.266;20.062;2022-07-29T07:25:33;9.40;;;8.50;;
1759;SDS011;877;46.266;20.062;2022-07-29T07:28:00;10.13;;;9.13;;
1759;SDS011;877;46.266;20.062;2022-07-29T07:30:26;11.10;;;8.70;;
1759;SDS011;877;46.266;20.062;2022-07-29T07:32:52;18.57;;;13.13;;
1759;SDS011;877;46.266;20.062;2022-07-29T07:35:18;16.97;;;13.60;;
1759;SDS011;877;46.266;20.062;2022-07-29T07:37:46;14.67;;;11.47;;
1759;SDS011;877;46.266;20.062;2022-07-29T07:40:17;10.43;;;8.40;;
1759;SDS011;877;46.266;20.062;2022-07-29T07:42:43;10.97;;;8.00;;
1759;SDS011;877;46.266;20.062;2022-07-29T07:45:10;8.87;;;6.97;;
1759;SDS011;877;46.266;20.062;2022-07-29T07:47:37;9.67;;;8.30;;
1759;SDS011;877;46.266;20.062;2022-07-29T07:50:07;8.73;;;7.50;;
1759;SDS011;877;46.266;20.062;2022-07-29T07:52:33;9.47;;;8.47;;
1759;SDS011;877;46.266;20.062;2022-07-29T07:55:00;8.83;;;7.87;;
1759;SDS011;877;46.266;20.062;2022-07-29T07:57:26;8.60;;;7.80;;
1759;SDS011;877;46.266;20.062;2022-07-29T07:59:52;8.40;;;7.40;;
1759;SDS011;877;46.266;20.062;2022-07-29T08:02:18;12.50;;;9.10;;
1759;SDS011;877;46.266;20.062;2022-07-29T08:04:44;9.17;;;7.90;;
1759;SDS011;877;46.266;20.062;2022-07-29T08:07:11;10.07;;;7.70;;
1759;SDS011;877;46.266;20.062;2022-07-29T08:09:39;10.67;;;7.60;;
1759;SDS011;877;46.266;20.062;2022-07-29T08:12:06;9.37;;;8.13;;
1759;SDS011;877;46.266;20.062;2022-07-29T08:14:33;9.07;;;7.57;;
1759;SDS011;877;46.266;20.062;2022-07-29T08:16:59;13.90;;;8.47;;
1759;SDS011;877;46.266;20.062;2022-07-29T08:19:26;11.87;;;8.70;;
1759;SDS011;877;46.266;20.062;2022-07-29T08:21:52;11.73;;;7.93;;
1759;SDS011;877;46.266;20.062;2022-07-29T08:24:19;12.23;;;9.33;;
1759;SDS011;877;46.266;20.062;2022-07-29T08:27:04;7.93;;;7.13;;
1759;SDS011;877;46.266;20.062;2022-07-29T08:29:31;11.80;;;7.50;;
1759;SDS011;877;46.266;20.062;2022-07-29T08:31:58;9.50;;;8.30;;
1759;SDS011;877;46.266;20.062;2022-07-29T08:34:25;9.43;;;7.90;;
1759;SDS011;877;46.266;20.062;2022-07-29T08:36:51;8.77;;;7.87;;
1759;SDS011;877;46.266;20.062;2022-07-29T08:39:19;10.97;;;7.50;;
1759;SDS011;877;46.266;20.062;2022-07-29T08:41:45;9.27;;;8.00;;
1759;SDS011;877;46.266;20.062;2022-07-29T08:44:13;8.93;;;7.97;;
1759;SDS011;877;46.266;20.062;2022-07-29T08:46:40;9.10;;;7.97;;
1759;SDS011;877;46.266;20.062;2022-07-29T08:49:06;11.53;;;8.23;;
1759;SDS011;877;46.266;20.062;2022-07-29T08:51:35;9.67;;;8.70;;
1759;SDS011;877;46.266;20.062;2022-07-29T08:54:02;8.47;;;7.60;;
1759;SDS011;877;46.266;20.062;2022-07-29T08:56:29;9.00;;;7.80;;
1759;SDS011;877;46.266;20.062;2022-07-29T08:58:55;8.03;;;7.20;;
1759;SDS011;877;46.266;20.062;2022-07-29T09:01:25;10.00;;;8.50;;
1759;SDS011;877;46.266;20.062;2022-07-29T09:03:51;9.00;;;7.63;;
1759;SDS011;877;46.266;20.062;2022-07-29T09:06:21;9.70;;;8.70;;
1759;SDS011;877;46.266;20.062;2022-07-29T09:11:37;10.83;;;9.07;;
1759;SDS011;877;46.266;20.062;2022-07-29T09:14:05;10.97;;;7.77;;
1759;SDS011;877;46.266;20.062;2022-07-29T09:19:34;9.13;;;7.80;;
1759;SDS011;877;46.266;20.062;2022-07-29T09:22:03;7.90;;;7.17;;
1759;SDS011;877;46.266;20.062;2022-07-29T09:24:46;8.63;;;7.73;;
1759;SDS011;877;46.266;20.062;2022-07-29T09:27:20;10.00;;;7.23;;
1759;SDS011;877;46.266;20.062;2022-07-29T09:32:25;7.53;;;6.83;;
1759;SDS011;877;46.266;20.062;2022-07-29T09:35:13;7.93;;;7.13;;
1759;SDS011;877;46.266;20.062;2022-07-29T09:37:37;10.20;;;7.37;;
1759;SDS011;877;46.266;20.062;2022-07-29T09:40:15;8.23;;;6.60;;
1759;SDS011;877;46.266;20.062;2022-07-29T09:42:41;6.73;;;6.10;;
1759;SDS011;877;46.266;20.062;2022-07-29T09:45:08;7.90;;;7.10;;
1759;SDS011;877;46.266;20.062;2022-07-29T09:47:44;7.90;;;7.10;;
1759;SDS011;877;46.266;20.062;2022-07-29T09:50:14;10.90;;;7.17;;
1759;SDS011;877;46.266;20.062;2022-07-29T09:52:48;9.03;;;6.80;;
1759;SDS011;877;46.266;20.062;2022-07-29T09:55:15;8.47;;;7.37;;
1759;SDS011;877;46.266;20.062;2022-07-29T09:57:44;8.40;;;7.10;;
1759;SDS011;877;46.266;20.062;2022-07-29T10:00:11;7.40;;;6.70;;
1759;SDS011;877;46.266;20.062;2022-07-29T10:02:38;8.60;;;6.30;;
1759;SDS011;877;46.266;20.062;2022-07-29T10:05:16;6.33;;;5.73;;
1759;SDS011;877;46.266;20.062;2022-07-29T10:10:23;7.83;;;7.00;;
1759;SDS011;877;46.266;20.062;2022-07-29T10:12:52;8.03;;;5.90;;
1759;SDS011;877;46.266;20.062;2022-07-29T10:15:20;8.73;;;7.17;;
1759;SDS011;877;46.266;20.062;2022-07-29T10:17:46;6.70;;;5.93;;
1759;SDS011;877;46.266;20.062;2022-07-29T10:20:13;7.50;;;6.67;;
1759;SDS011;877;46.266;20.062;2022-07-29T10:22:46;9.40;;;7.07;;
1759;SDS011;877;46.266;20.062;2022-07-29T10:25:12;9.80;;;7.13;;
1759;SDS011;877;46.266;20.062;2022-07-29T10:27:41;7.93;;;7.13;;
1759;SDS011;877;46.266;20.062;2022-07-29T10:30:07;7.10;;;5.97;;
1759;SDS011;877;46.266;20.062;2022-07-29T10:32:37;6.50;;;5.90;;
1759;SDS011;877;46.266;20.062;2022-07-29T10:44:00;8.33;;;6.33;;
1759;SDS011;877;46.266;20.062;2022-07-29T10:46:27;10.23;;;7.07;;
1759;SDS011;877;46.266;20.062;2022-07-29T10:49:08;7.60;;;6.87;;
1759;SDS011;877;46.266;20.062;2022-07-29T10:51:53;7.17;;;6.47;;
1759;SDS011;877;46.266;20.062;2022-07-29T10:59:39;7.83;;;6.90;;
1759;SDS011;877;46.266;20.062;2022-07-29T11:07:16;7.33;;;6.63;;
1759;SDS011;877;46.266;20.062;2022-07-29T11:09:43;9.03;;;7.10;;
1759;SDS011;877;46.266;20.062;2022-07-29T11:14:57;7.87;;;6.40;;
1759;SDS011;877;46.266;20.062;2022-07-29T11:17:26;7.03;;;6.33;;
1759;SDS011;877;46.266;20.062;2022-07-29T11:20:40;6.80;;;6.07;;
1759;SDS011;877;46.266;20.062;2022-07-29T11:22:40;6.37;;;5.77;;
1759;SDS011;877;46.266;20.062;2022-07-29T11:25:15;7.10;;;6.40;;
1759;SDS011;877;46.266;20.062;2022-07-29T11:27:41;6.20;;;5.50;;
1759;SDS011;877;46.266;20.062;2022-07-29T11:30:08;7.27;;;6.00;;
1759;SDS011;877;46.266;20.062;2022-07-29T11:32:38;6.53;;;5.93;;
1759;SDS011;877;46.266;20.062;2022-07-29T11:35:12;7.70;;;6.27;;
1759;SDS011;877;46.266;20.062;2022-07-29T11:37:39;6.90;;;6.10;;
1759;SDS011;877;46.266;20.062;2022-07-29T11:47:28;8.87;;;6.33;;
1759;SDS011;877;46.266;20.062;2022-07-29T11:49:55;8.13;;;6.80;;
1759;SDS011;877;46.266;20.062;2022-07-29T11:55:04;5.83;;;5.23;;
1759;SDS011;877;46.266;20.062;2022-07-29T11:57:31;9.80;;;5.90;;
1759;SDS011;877;46.266;20.062;2022-07-29T11:59:57;6.77;;;6.10;;
1759;SDS011;877;46.266;20.062;2022-07-29T12:02:24;7.20;;;6.50;;
1759;SDS011;877;46.266;20.062;2022-07-29T12:04:51;7.77;;;6.30;;
1759;SDS011;877;46.266;20.062;2022-07-29T12:07:18;7.83;;;5.50;;
1759;SDS011;877;46.266;20.062;2022-07-29T12:09:50;6.53;;;5.83;;
1759;SDS011;877;46.266;20.062;2022-07-29T12:12:17;7.87;;;6.10;;
1759;SDS011;877;46.266;20.062;2022-07-29T12:14:43;7.93;;;6.10;;
1759;SDS011;877;46.266;20.062;2022-07-29T12:17:28;6.87;;;5.80;;
1759;SDS011;877;46.266;20.062;2022-07-29T12:19:55;10.13;;;5.80;;
1759;SDS011;877;46.266;20.062;2022-07-29T12:22:26;7.00;;;6.30;;
1759;SDS011;877;46.266;20.062;2022-07-29T12:24:53;6.43;;;5.83;;
1759;SDS011;877;46.266;20.062;2022-07-29T12:27:20;6.00;;;5.40;;
1759;SDS011;877;46.266;20.062;2022-07-29T12:29:56;9.60;;;6.67;;
1759;SDS011;877;46.266;20.062;2022-07-29T12:32:30;7.07;;;5.77;;
1759;SDS011;877;46.266;20.062;2022-07-29T12:34:57;7.07;;;6.30;;
1759;SDS011;877;46.266;20.062;2022-07-29T12:37:24;7.90;;;6.13;;
1759;SDS011;877;46.266;20.062;2022-07-29T12:39:50;7.60;;;6.10;;
1759;SDS011;877;46.266;20.062;2022-07-29T12:42:16;9.90;;;6.10;;
1759;SDS011;877;46.266;20.062;2022-07-29T12:44:46;7.07;;;6.37;;
1759;SDS011;877;46.266;20.062;2022-07-29T12:47:13;6.30;;;5.70;;
1759;SDS011;877;46.266;20.062;2022-07-29T12:49:40;10.00;;;6.73;;
1759;SDS011;877;46.266;20.062;2022-07-29T12:54:50;7.60;;;6.43;;
1759;SDS011;877;46.266;20.062;2022-07-29T12:57:17;7.90;;;6.07;;
1759;SDS011;877;46.266;20.062;2022-07-29T12:59:43;9.03;;;6.13;;
1759;SDS011;877;46.266;20.062;2022-07-29T13:02:30;7.03;;;6.17;;
1759;SDS011;877;46.266;20.062;2022-07-29T13:04:56;6.50;;;5.90;;
1759;SDS011;877;46.266;20.062;2022-07-29T13:07:26;7.43;;;6.20;;
1759;SDS011;877;46.266;20.062;2022-07-29T13:09:54;8.00;;;6.47;;
1759;SDS011;877;46.266;20.062;2022-07-29T13:12:20;7.27;;;6.57;;
1759;SDS011;877;46.266;20.062;2022-07-29T13:14:49;7.33;;;6.60;;
1759;SDS011;877;46.266;20.062;2022-07-29T13:17:19;7.67;;;6.23;;
1759;SDS011;877;46.266;20.062;2022-07-29T13:19:51;7.27;;;6.57;;
1759;SDS011;877;46.266;20.062;2022-07-29T13:22:19;8.63;;;6.90;;
1759;SDS011;877;46.266;20.062;2022-07-29T13:27:18;7.23;;;6.37;;
1759;SDS011;877;46.266;20.062;2022-07-29T13:29:44;8.47;;;6.73;;
1759;SDS011;877;46.266;20.062;2022-07-29T13:32:11;9.23;;;6.10;;
1759;SDS011;877;46.266;20.062;2022-07-29T13:34:38;7.53;;;6.83;;
1759;SDS011;877;46.266;20.062;2022-07-29T13:37:04;7.53;;;6.83;;
1759;SDS011;877;46.266;20.062;2022-07-29T13:39:31;8.27;;;7.13;;
1759;SDS011;877;46.266;20.062;2022-07-29T13:41:57;7.03;;;6.30;;
1759;SDS011;877;46.266;20.062;2022-07-29T13:44:23;7.57;;;6.80;;
1759;SDS011;877;46.266;20.062;2022-07-29T13:46:49;11.00;;;7.10;;
1759;SDS011;877;46.266;20.062;2022-07-29T13:49:15;7.60;;;6.90;;
1759;SDS011;877;46.266;20.062;2022-07-29T13:51:42;8.03;;;6.37;;
1759;SDS011;877;46.266;20.062;2022-07-29T13:54:08;8.07;;;6.17;;
1759;SDS011;877;46.266;20.062;2022-07-29T13:56:35;7.47;;;6.77;;
1759;SDS011;877;46.266;20.062;2022-07-29T13:59:02;8.07;;;7.00;;
1759;SDS011;877;46.266;20.062;2022-07-29T14:01:28;8.20;;;7.37;;
1759;SDS011;877;46.266;20.062;2022-07-29T14:03:55;6.40;;;5.80;;
1759;SDS011;877;46.266;20.062;2022-07-29T14:06:22;7.70;;;6.90;;
1759;SDS011;877;46.266;20.062;2022-07-29T14:08:48;7.70;;;6.90;;
1759;SDS011;877;46.266;20.062;2022-07-29T14:11:14;9.00;;;6.20;;
1759;SDS011;877;46.266;20.062;2022-07-29T14:13:41;7.63;;;6.30;;
1759;SDS011;877;46.266;20.062;2022-07-29T14:16:07;6.57;;;5.93;;
1759;SDS011;877;46.266;20.062;2022-07-29T14:18:34;7.77;;;7.03;;
1759;SDS011;877;46.266;20.062;2022-07-29T14:21:00;7.33;;;6.60;;
1759;SDS011;877;46.266;20.062;2022-07-29T14:23:26;6.97;;;6.27;;
1759;SDS011;877;46.266;20.062;2022-07-29T14:25:53;9.70;;;6.50;;
1759;SDS011;877;46.266;20.062;2022-07-29T14:28:20;6.80;;;6.20;;
1759;SDS011;877;46.266;20.062;2022-07-29T14:30:46;7.90;;;7.10;;
1759;SDS011;877;46.266;20.062;2022-07-29T14:33:13;7.23;;;6.20;;
1759;SDS011;877;46.266;20.062;2022-07-29T14:35:39;6.77;;;6.00;;
1759;SDS011;877;46.266;20.062;2022-07-29T14:38:05;7.87;;;6.13;;
1759;SDS011;877;46.266;20.062;2022-07-29T14:40:32;6.27;;;5.67;;
1759;SDS011;877;46.266;20.062;2022-07-29T14:42:58;7.47;;;6.40;;
1759;SDS011;877;46.266;20.062;2022-07-29T14:45:24;6.90;;;6.10;;
1759;SDS011;877;46.266;20.062;2022-07-29T14:47:50;6.63;;;6.00;;
1759;SDS011;877;46.266;20.062;2022-07-29T14:50:16;7.13;;;6.33;;
1759;SDS011;877;46.266;20.062;2022-07-29T14:52:43;7.63;;;5.87;;
1759;SDS011;877;46.266;20.062;2022-07-29T14:55:09;7.10;;;6.00;;
1759;SDS011;877;46.266;20.062;2022-07-29T14:57:36;7.17;;;6.30;;
1759;SDS011;877;46.266;20.062;2022-07-29T15:00:04;6.70;;;6.07;;
1759;SDS011;877;46.266;20.062;2022-07-29T15:02:33;7.20;;;5.67;;
1759;SDS011;877;46.266;20.062;2022-07-29T15:05:01;6.70;;;5.13;;
1759;SDS011;877;46.266;20.062;2022-07-29T15:07:27;8.27;;;6.10;;
1759;SDS011;877;46.266;20.062;2022-07-29T15:09:53;6.93;;;6.23;;
1759;SDS011;877;46.266;20.062;2022-07-29T15:12:21;9.57;;;6.27;;
1759;SDS011;877;46.266;20.062;2022-07-29T15:14:47;7.63;;;5.73;;
1759;SDS011;877;46.266;20.062;2022-07-29T15:17:13;7.50;;;6.33;;
1759;SDS011;877;46.266;20.062;2022-07-29T15:19:40;7.17;;;6.47;;
1759;SDS011;877;46.266;20.062;2022-07-29T15:22:07;8.53;;;5.30;;
1759;SDS011;877;46.266;20.062;2022-07-29T15:24:33;6.20;;;5.60;;
1759;SDS011;877;46.266;20.062;2022-07-29T15:26:59;9.90;;;6.17;;
1759;SDS011;877;46.266;20.062;2022-07-29T15:29:26;7.53;;;6.30;;
1759;SDS011;877;46.266;20.062;2022-07-29T15:31:53;18.13;;;6.67;;
1759;SDS011;877;46.266;20.062;2022-07-29T15:34:20;21.90;;;7.93;;
1759;SDS011;877;46.266;20.062;2022-07-29T15:36:48;14.97;;;6.93;;
1759;SDS011;877;46.266;20.062;2022-07-29T15:39:16;16.53;;;7.10;;
1759;SDS011;877;46.266;20.062;2022-07-29T15:41:42;22.50;;;8.33;;
1759;SDS011;877;46.266;20.062;2022-07-29T15:44:10;13.27;;;6.87;;
1759;SDS011;877;46.266;20.062;2022-07-29T15:46:38;11.33;;;9.03;;
1759;SDS011;877;46.266;20.062;2022-07-29T15:49:23;12.77;;;9.03;;
1759;SDS011;877;46.266;20.062;2022-07-29T15:51:56;16.33;;;8.63;;
1759;SDS011;877;46.266;20.062;2022-07-29T15:54:23;8.73;;;7.70;;
1759;SDS011;877;46.266;20.062;2022-07-29T15:56:50;7.70;;;7.00;;
1759;SDS011;877;46.266;20.062;2022-07-29T15:59:18;9.40;;;8.33;;
1759;SDS011;877;46.266;20.062;2022-07-29T16:01:44;9.47;;;8.50;;
1759;SDS011;877;46.266;20.062;2022-07-29T16:04:12;9.27;;;8.27;;
1759;SDS011;877;46.266;20.062;2022-07-29T16:06:39;10.20;;;8.13;;
1759;SDS011;877;46.266;20.062;2022-07-29T16:09:05;9.73;;;8.10;;
1759;SDS011;877;46.266;20.062;2022-07-29T16:11:33;10.73;;;8.50;;
1759;SDS011;877;46.266;20.062;2022-07-29T16:13:59;11.33;;;8.90;;
1759;SDS011;877;46.266;20.062;2022-07-29T16:16:26;9.53;;;8.57;;
1759;SDS011;877;46.266;20.062;2022-07-29T16:19:00;9.13;;;7.90;;
1759;SDS011;877;46.266;20.062;2022-07-29T16:21:27;10.80;;;8.30;;
1759;SDS011;877;46.266;20.062;2022-07-29T16:23:55;11.57;;;8.10;;
1759;SDS011;877;46.266;20.062;2022-07-29T16:28:54;11.23;;;8.30;;
1759;SDS011;877;46.266;20.062;2022-07-29T16:31:20;8.50;;;7.70;;
1759;SDS011;877;46.266;20.062;2022-07-29T16:33:50;10.00;;;9.00;;